Time;durP1;ratioP1;P1;durP2;ratioP2;P2;SDS_P1;SDS_P2;PMS_P1;PMS_P2;Temp;Humidity;BMP_temperature;BMP_pressure;BME280_temperature;BME280_humidity;BME280_pressure;Samples;Min_cycle;Max_cycle;Signal;HPM_P1;HPM_P2
2023/09/08 00:02:04;;;;;;;14.00;10.70;;;;;;;17.38;72.98;99856.85;232841;215;147272;-65
2023/09/08 00:07:07;;;;;;;16.50;11.00;;;;;;;17.27;73.27;99860.55;232783;215;138791;-62
2023/09/08 00:12:13;;;;;;;14.70;10.20;;;;;;;17.20;73.47;99859.98;232752;215;141344;-63
2023/09/08 00:17:17;;;;;;;19.20;11.00;;;;;;;17.20;73.86;99863.95;232784;215;149257;-61
2023/09/08 00:22:21;;;;;;;19.40;10.20;;;;;;;17.22;73.78;99864.85;232766;215;140041;-63
2023/09/08 00:27:27;;;;;;;16.40;11.10;;;;;;;17.23;73.68;99863.01;232649;215;137602;-64
2023/09/08 00:32:31;;;;;;;14.60;10.60;;;;;;;17.22;73.86;99863.77;232868;215;147204;-64
2023/09/08 00:37:42;;;;;;;15.80;10.90;;;;;;;17.19;73.97;99858.41;232831;215;139705;-63
2023/09/08 00:42:50;;;;;;;17.10;10.70;;;;;;;17.16;74.31;99852.42;232795;215;137166;-63
2023/09/08 00:47:56;;;;;;;14.80;10.40;;;;;;;17.14;74.43;99852.35;232764;215;149427;-62
2023/09/08 00:53:04;;;;;;;16.50;11.10;;;;;;;17.15;74.56;99848.89;232742;215;142053;-61
2023/09/08 00:58:14;;;;;;;22.20;11.60;;;;;;;17.13;74.55;99849.61;232746;215;137565;-66
2023/09/08 01:03:18;;;;;;;18.30;10.80;;;;;;;17.10;74.53;99847.67;232659;215;148512;-62
2023/09/08 01:08:21;;;;;;;26.50;11.60;;;;;;;17.06;74.49;99842.05;232743;215;138943;-61
2023/09/08 01:13:25;;;;;;;26.80;12.00;;;;;;;17.00;74.44;99841.80;232790;215;137856;-62
2023/09/08 01:18:30;;;;;;;29.30;11.40;;;;;;;16.95;74.63;99837.69;232883;215;147450;-62
2023/09/08 01:24:13;;;;;;;30.50;11.80;;;;;;;16.90;74.51;99839.14;232704;215;142054;-62
2023/09/08 01:29:24;;;;;;;26.80;12.60;;;;;;;16.88;74.45;99834.11;232802;215;138048;-62
2023/09/08 01:34:31;;;;;;;19.80;11.70;;;;;;;16.85;74.09;99835.77;232741;215;148864;-65
2023/09/08 01:39:48;;;;;;;20.10;11.80;;;;;;;16.80;74.17;99837.94;232766;215;138874;-63
2023/09/08 01:44:52;;;;;;;23.90;11.40;;;;;;;16.71;74.06;99839.48;232770;215;137877;-67
2023/09/08 01:49:58;;;;;;;28.20;12.40;;;;;;;16.63;74.04;99839.17;232909;215;148260;-60
2023/09/08 01:55:02;;;;;;;16.80;10.40;;;;;;;16.53;74.23;99837.60;232767;215;140071;-61
2023/09/08 02:00:09;;;;;;;16.10;10.20;;;;;;;16.46;74.53;99834.51;232677;215;138776;-61
2023/09/08 02:05:16;;;;;;;21.00;11.30;;;;;;;16.46;74.60;99838.81;234421;215;147605;-62
2023/09/08 02:10:20;;;;;;;18.50;11.30;;;;;;;16.41;74.72;99837.73;234427;215;138984;-63
2023/09/08 02:15:23;;;;;;;19.50;10.60;;;;;;;16.38;74.75;99837.61;234501;215;140800;-64
2023/09/08 02:20:27;;;;;;;17.10;11.30;;;;;;;16.37;74.83;99840.58;234698;215;148061;-65
2023/09/08 02:25:31;;;;;;;17.30;12.00;;;;;;;16.34;75.04;99843.10;234504;215;139313;-62
2023/09/08 02:30:35;;;;;;;17.80;10.80;;;;;;;16.29;75.25;99839.31;234505;215;139647;-62
2023/09/08 02:35:39;;;;;;;16.40;10.80;;;;;;;16.27;75.56;99833.17;234421;215;147534;-62
2023/09/08 02:40:43;;;;;;;23.30;12.20;;;;;;;16.34;75.76;99822.32;234540;215;139114;-63
2023/09/08 02:45:47;;;;;;;20.50;12.20;;;;;;;16.41;75.58;99822.88;234436;215;137577;-63
2023/09/08 02:56:45;;;;;;;20.00;11.60;;;;;;;16.37;75.08;99816.52;231305;224;726121;-60
2023/09/08 03:01:52;;;;;;;19.80;11.40;;;;;;;16.27;74.72;99814.59;233105;216;136596;-60
2023/09/08 03:06:59;;;;;;;26.80;10.90;;;;;;;16.17;74.62;99809.79;232944;215;145780;-62
2023/09/08 03:12:04;;;;;;;;;;;;;;;16.05;74.57;99807.91;232830;215;138780;-63
2023/09/08 03:17:08;;;;;;;23.30;11.60;;;;;;;16.01;74.75;99807.53;232851;215;129614;-62
2023/09/08 03:22:13;;;;;;;22.30;11.10;;;;;;;15.98;74.74;99805.20;232839;215;144984;-60
2023/09/08 03:27:17;;;;;;;26.40;12.10;;;;;;;15.93;74.62;99802.38;232850;215;140759;-61
2023/09/08 03:32:21;;;;;;;24.60;12.10;;;;;;;15.84;74.88;99801.60;232963;215;137219;-62
2023/09/08 03:37:28;;;;;;;36.30;12.70;;;;;;;15.77;75.25;99796.19;232779;215;143870;-62
2023/09/08 03:42:32;;;;;;;35.20;12.80;;;;;;;15.70;75.40;99801.15;232822;215;138971;-64
2023/09/08 03:47:39;;;;;;;25.00;12.00;;;;;;;15.66;75.48;99800.70;232777;215;139787;-62
2023/09/08 03:52:55;;;;;;;34.40;12.20;;;;;;;15.68;75.69;99794.30;232854;216;145479;-66
2023/09/08 03:58:00;;;;;;;29.30;12.70;;;;;;;15.70;75.77;99785.42;232639;214;138909;-61
2023/09/08 04:03:04;;;;;;;29.50;12.40;;;;;;;15.67;75.88;99789.55;232641;214;138860;-63
2023/09/08 04:08:08;;;;;;;30.70;12.90;;;;;;;15.66;75.76;99791.92;232830;214;146560;-61
2023/09/08 04:13:13;;;;;;;35.30;13.50;;;;;;;15.61;75.94;99794.25;232811;214;139981;-61
2023/09/08 04:18:18;;;;;;;35.50;12.70;;;;;;;15.56;76.15;99800.88;232685;214;137280;-63
2023/09/08 04:23:24;;;;;;;;;;;;;;;15.54;76.36;99802.05;232736;215;148109;-64
2023/09/08 04:28:29;;;;;;;116.20;78.90;;;;;;;15.54;76.57;99796.88;232695;214;138893;-61
2023/09/08 04:33:32;;;;;;;41.60;31.90;;;;;;;15.60;76.96;99798.08;232714;214;139814;-62
2023/09/08 04:38:38;;;;;;;18.70;13.10;;;;;;;15.62;76.90;99797.74;232814;214;145721;-60
2023/09/08 04:43:43;;;;;;;20.10;13.00;;;;;;;15.64;77.19;99800.31;232645;214;139890;-61
2023/09/08 04:50:19;;;;;;;76.60;58.30;;;;;;;15.70;77.27;99794.35;231414;224;724720;-60
2023/09/08 04:55:26;;;;;;;18.30;12.70;;;;;;;15.71;77.44;99793.92;232747;214;138023;-60
2023/09/08 05:00:30;;;;;;;19.60;12.10;;;;;;;15.77;77.30;99791.02;232697;214;143854;-60
2023/09/08 05:05:39;;;;;;;22.30;13.70;;;;;;;15.83;77.39;99793.40;232751;214;138889;-60
2023/09/08 05:10:44;;;;;;;18.50;13.60;;;;;;;15.90;77.48;99795.44;232788;214;137378;-62
2023/09/08 05:15:49;;;;;;;19.50;13.90;;;;;;;15.97;77.70;99797.98;232757;214;144745;-61
2023/09/08 05:20:54;;;;;;;;;;;;;;;16.03;78.17;99802.38;232809;214;138926;-63
2023/09/08 05:26:01;;;;;;;18.50;12.60;;;;;;;16.11;78.30;99807.89;232783;214;129364;-60
2023/09/08 05:31:05;;;;;;;24.10;13.20;;;;;;;16.23;78.49;99806.33;232722;214;143905;-61
2023/09/08 05:36:12;;;;;;;21.60;13.60;;;;;;;16.32;78.44;99805.11;232812;215;138861;-60
2023/09/08 05:41:19;;;;;;;19.60;15.00;;;;;;;16.39;78.53;99801.52;232810;215;137859;-62
2023/09/08 05:46:24;;;;;;;29.80;20.90;;;;;;;16.50;78.85;99807.30;232624;214;145610;-62
2023/09/08 05:51:28;;;;;;;22.60;14.50;;;;;;;16.63;78.97;99803.81;232657;214;139622;-63
2023/09/08 05:56:37;;;;;;;31.10;14.40;;;;;;;16.73;78.97;99813.31;232828;214;138005;-60
2023/09/08 06:01:48;;;;;;;23.50;14.00;;;;;;;16.86;78.99;99815.27;232738;215;145764;-62
2023/09/08 06:07:12;;;;;;;24.20;15.60;;;;;;;17.00;79.13;99810.73;232665;215;139410;-68
2023/09/08 06:12:18;;;;;;;;;;;;;;;17.14;79.13;99806.27;232774;215;137141;-63
2023/09/08 06:17:21;;;;;;;35.30;16.40;;;;;;;17.26;79.06;99807.55;232804;215;145853;-63
2023/09/08 06:22:28;;;;;;;29.80;14.70;;;;;;;17.33;79.12;99812.55;232696;215;139116;-66
2023/09/08 06:27:35;;;;;;;23.80;14.10;;;;;;;17.43;79.12;99809.41;232852;215;138211;-63
2023/09/08 06:32:40;;;;;;;43.60;32.70;;;;;;;17.66;79.29;99801.34;232976;215;145391;-63
2023/09/08 06:37:46;;;;;;;28.20;16.00;;;;;;;17.98;78.85;99804.02;232735;215;138862;-62
2023/09/08 06:42:53;;;;;;;;;;;;;;;18.14;78.62;99807.02;232709;215;138045;-63
2023/09/08 06:48:16;;;;;;;26.20;16.30;;;;;;;18.38;79.01;99805.60;232681;213;146931;-62
2023/09/08 06:53:21;;;;;;;23.40;15.80;;;;;;;18.62;78.96;99801.27;232715;214;138848;-68
2023/09/08 06:58:26;;;;;;;33.80;16.90;;;;;;;18.77;78.60;99797.70;232688;214;138941;-65
2023/09/08 07:03:36;;;;;;;27.00;15.80;;;;;;;19.04;78.84;99799.06;232773;215;145648;-63
2023/09/08 07:08:45;;;;;;;49.20;32.40;;;;;;;19.24;78.03;99799.08;232814;215;139547;-63
2023/09/08 07:13:50;;;;;;;30.90;17.40;;;;;;;19.39;77.42;99795.13;232737;215;137984;-64
2023/09/08 07:18:56;;;;;;;25.60;15.90;;;;;;;19.56;77.11;99794.39;232735;215;145561;-66
2023/09/08 07:24:03;;;;;;;21.30;12.60;;;;;;;19.69;76.97;99795.80;232690;215;139148;-61
2023/09/08 07:29:06;;;;;;;25.30;15.20;;;;;;;19.84;76.66;99800.60;232708;208;138796;-62
2023/09/08 07:34:12;;;;;;;19.60;13.50;;;;;;;19.93;75.48;99799.97;232687;215;145832;-65
2023/09/08 07:39:18;;;;;;;287.60;212.50;;;;;;;20.01;74.98;99794.34;232826;215;139111;-61
2023/09/08 07:44:22;;;;;;;30.90;18.10;;;;;;;20.04;74.27;99797.35;232786;215;138912;-62
2023/09/08 07:49:27;;;;;;;24.30;14.40;;;;;;;20.06;73.96;99800.05;232752;215;145854;-64
2023/09/08 07:54:33;;;;;;;22.70;14.10;;;;;;;20.05;74.17;99796.89;232721;215;138681;-63
2023/09/08 07:59:37;;;;;;;20.10;13.30;;;;;;;20.07;74.53;99798.41;232764;215;137692;-63
2023/09/08 08:04:43;;;;;;;18.30;12.20;;;;;;;20.11;74.27;99796.17;232763;214;147901;-62
2023/09/08 08:09:47;;;;;;;388.70;306.60;;;;;;;20.26;73.71;99787.27;232880;214;140588;-62
2023/09/08 08:14:52;;;;;;;23.00;15.00;;;;;;;20.45;73.37;99786.27;232931;214;138979;-63
2023/09/08 08:19:58;;;;;;;21.90;13.20;;;;;;;20.61;72.15;99781.80;232746;214;146269;-61
2023/09/08 08:25:03;;;;;;;24.20;12.90;;;;;;;20.64;72.04;99781.11;232772;215;139148;-61
2023/09/08 08:30:11;;;;;;;26.70;15.60;;;;;;;20.65;72.75;99779.95;232838;215;137790;-64
2023/09/08 08:35:15;;;;;;;48.60;29.20;;;;;;;20.79;72.46;99776.02;232785;215;146353;-63
2023/09/08 08:40:21;;;;;;;23.40;10.50;;;;;;;20.93;71.95;99771.04;232765;215;140527;-63
2023/09/08 08:45:26;;;;;;;187.40;135.80;;;;;;;21.12;71.83;99767.59;232885;215;138414;-62
2023/09/08 08:50:30;;;;;;;38.00;27.70;;;;;;;21.32;71.67;99766.91;232747;215;146612;-63
2023/09/08 08:55:36;;;;;;;22.40;12.50;;;;;;;21.45;71.13;99761.63;232805;215;138798;-60
2023/09/08 09:00:41;;;;;;;21.30;11.00;;;;;;;21.57;70.49;99759.39;232774;215;138596;-62
2023/09/08 09:05:46;;;;;;;18.10;10.10;;;;;;;21.64;69.06;99755.42;232694;214;145776;-61
2023/09/08 09:10:52;;;;;;;21.40;10.80;;;;;;;21.73;68.65;99755.17;232746;215;138911;-61
2023/09/08 09:16:03;;;;;;;16.80;9.90;;;;;;;21.83;67.96;99751.88;232714;215;137565;-61
2023/09/08 09:21:07;;;;;;;30.70;13.10;;;;;;;21.94;67.81;99748.77;232820;214;145729;-61
2023/09/08 09:26:23;;;;;;;19.50;11.70;;;;;;;22.09;67.52;99744.58;232661;214;138713;-62
2023/09/08 09:31:29;;;;;;;19.10;12.10;;;;;;;22.23;66.75;99733.77;232780;215;138221;-60
2023/09/08 09:36:33;;;;;;;21.50;14.20;;;;;;;22.38;66.55;99729.03;232702;215;145606;-63
2023/09/08 09:41:37;;;;;;;23.50;12.90;;;;;;;22.50;66.03;99729.14;232741;215;138811;-61
2023/09/08 09:46:46;;;;;;;16.80;10.70;;;;;;;22.57;65.29;99724.45;232680;214;138724;-61
2023/09/08 09:51:53;;;;;;;24.40;15.80;;;;;;;22.62;65.45;99718.91;232898;215;147991;-60
2023/09/08 09:57:00;;;;;;;20.40;9.60;;;;;;;22.78;64.78;99712.38;232777;215;139443;-61
2023/09/08 10:02:11;;;;;;;15.60;8.20;;;;;;;22.94;64.27;99706.92;232679;214;138966;-61
2023/09/08 10:07:17;;;;;;;13.00;7.30;;;;;;;23.19;63.77;99705.76;232787;215;145695;-61
2023/09/08 10:12:23;;;;;;;13.50;8.10;;;;;;;23.44;62.91;99704.04;232689;214;140711;-60
2023/09/08 10:17:30;;;;;;;12.20;7.00;;;;;;;23.68;62.55;99702.51;232784;215;138651;-62
2023/09/08 10:22:38;;;;;;;15.20;9.80;;;;;;;23.91;61.11;99701.86;232812;215;147525;-62
2023/09/08 10:27:44;;;;;;;12.80;8.00;;;;;;;24.14;59.31;99694.42;232831;215;138763;-61
2023/09/08 10:32:50;;;;;;;10.90;7.40;;;;;;;24.33;58.74;99687.30;232796;215;136941;-60
2023/09/08 10:38:16;;;;;;;;;;;;;;;24.44;58.31;99687.23;232812;215;145956;-61
2023/09/08 10:43:24;;;;;;;10.20;6.70;;;;;;;24.60;58.14;99681.64;232857;214;138827;-61
2023/09/08 10:48:42;;;;;;;10.70;7.20;;;;;;;24.74;57.67;99679.75;232759;214;137957;-61
2023/09/08 10:53:50;;;;;;;24.70;16.20;;;;;;;24.86;57.47;99671.48;232735;215;147379;-63
2023/09/08 10:58:54;;;;;;;11.90;7.80;;;;;;;25.02;57.24;99668.64;232684;214;138616;-62
2023/09/08 11:04:08;;;;;;;13.30;7.10;;;;;;;25.16;56.39;99665.41;232949;215;138004;-61
2023/09/08 11:09:16;;;;;;;13.30;7.10;;;;;;;25.24;55.38;99663.77;232761;214;146738;-61
2023/09/08 11:14:21;;;;;;;;;;;;;;;25.35;54.26;99660.59;232699;215;139200;-60
2023/09/08 11:19:47;;;;;;;8.90;6.20;;;;;;;25.50;53.85;99655.94;232837;215;131054;-60
2023/09/08 11:25:00;;;;;;;14.70;7.50;;;;;;;25.64;54.14;99656.77;232710;214;145641;-61
2023/09/08 11:30:09;;;;;;;84.20;74.90;;;;;;;25.82;53.58;99654.25;232777;214;138688;-64
2023/09/08 11:35:13;;;;;;;13.00;9.30;;;;;;;25.92;53.13;99652.30;232853;215;137356;-60
2023/09/08 11:40:28;;;;;;;13.80;7.70;;;;;;;26.05;52.76;99648.98;232763;215;146659;-59
2023/09/08 11:45:38;;;;;;;13.20;6.90;;;;;;;26.26;52.21;99653.70;232797;214;139524;-60
2023/09/08 11:50:44;;;;;;;14.20;6.80;;;;;;;26.40;51.62;99651.30;232745;215;137209;-61
2023/09/08 11:55:50;;;;;;;7.70;6.00;;;;;;;26.55;51.37;99644.52;232827;215;146222;-59
2023/09/08 12:00:54;;;;;;;11.00;6.30;;;;;;;26.66;50.86;99642.69;232858;215;140953;-62
2023/09/08 12:06:01;;;;;;;262.90;223.50;;;;;;;26.79;50.68;99640.13;232798;215;136743;-64
2023/09/08 12:11:08;;;;;;;14.90;11.70;;;;;;;26.94;50.18;99635.12;232639;214;145756;-62
2023/09/08 12:16:24;;;;;;;10.40;6.40;;;;;;;26.96;49.52;99625.81;232828;215;140540;-62
2023/09/08 12:21:32;;;;;;;8.80;5.70;;;;;;;27.16;48.71;99623.16;232868;214;137371;-62
2023/09/08 12:26:37;;;;;;;10.00;5.50;;;;;;;27.33;48.59;99618.88;232665;214;146333;-60
2023/09/08 12:31:43;;;;;;;11.60;5.90;;;;;;;27.47;48.45;99616.96;232687;215;139060;-60
2023/09/08 12:36:48;;;;;;;;;;;;;;;27.61;47.93;99613.27;232801;214;137300;-65
2023/09/08 12:42:03;;;;;;;10.50;6.40;;;;;;;27.69;47.42;99606.80;232828;215;148816;-61
2023/09/08 12:47:12;;;;;;;13.50;6.40;;;;;;;27.75;48.05;99602.77;232705;214;138899;-60
2023/09/08 12:52:17;;;;;;;10.60;5.40;;;;;;;27.79;47.25;99593.02;232848;215;136740;-60
2023/09/08 12:57:21;;;;;;;9.50;5.60;;;;;;;27.87;46.32;99596.52;232791;215;145794;-58
2023/09/08 13:02:26;;;;;;;;;;;;;;;28.08;46.80;99589.38;232782;214;141837;-60
2023/09/08 13:07:31;;;;;;;27.10;20.90;;;;;;;28.30;46.53;99580.66;232833;215;131187;-61
2023/09/08 13:12:35;;;;;;;;;;;;;;;28.52;46.06;99576.75;232820;214;145664;-60
2023/09/08 13:17:40;;;;;;;8.10;6.20;;;;;;;28.69;45.89;99571.41;232779;214;138694;-59
2023/09/08 13:22:45;;;;;;;7.80;5.30;;;;;;;28.82;45.59;99569.77;232642;215;136767;-59
2023/09/08 13:27:50;;;;;;;9.40;5.70;;;;;;;28.84;45.18;99571.69;232869;214;147724;-59
2023/09/08 13:32:56;;;;;;;11.50;5.50;;;;;;;28.89;44.56;99574.16;232703;215;138978;-60
2023/09/08 13:38:04;;;;;;;50.90;44.00;;;;;;;28.94;43.45;99569.23;232670;215;138334;-58
2023/09/08 13:43:07;;;;;;;16.00;12.00;;;;;;;29.08;43.32;99566.94;232639;215;147663;-59
2023/09/08 13:48:11;;;;;;;24.70;7.80;;;;;;;29.21;44.03;99560.29;232678;215;140271;-59
2023/09/08 13:53:20;;;;;;;9.60;6.80;;;;;;;29.24;43.66;99552.38;232635;215;136878;-60
2023/09/08 13:58:37;;;;;;;288.00;254.30;;;;;;;29.19;42.79;99555.56;232655;215;149391;-61
2023/09/08 14:03:46;;;;;;;26.00;20.40;;;;;;;28.99;42.23;99552.71;232740;214;140405;-59
2023/09/08 14:08:54;;;;;;;14.50;9.90;;;;;;;28.65;42.41;99549.04;232703;215;138354;-60
2023/09/08 14:14:03;;;;;;;11.00;6.80;;;;;;;28.18;43.66;99543.66;232692;215;147672;-60
2023/09/08 14:19:07;;;;;;;15.60;12.70;;;;;;;27.77;44.37;99542.90;232671;215;138711;-62
2023/09/08 14:24:13;;;;;;;8.10;6.00;;;;;;;27.26;44.88;99535.54;232750;215;140588;-59
2023/09/08 14:29:17;;;;;;;11.60;5.60;;;;;;;26.78;45.63;99530.06;232687;214;147541;-58
2023/09/08 14:34:21;;;;;;;8.30;5.50;;;;;;;26.48;46.20;99527.09;232744;214;138701;-59
2023/09/08 14:39:26;;;;;;;9.20;5.60;;;;;;;26.27;46.80;99522.55;232631;214;137502;-59
2023/09/08 14:44:32;;;;;;;9.50;5.00;;;;;;;26.07;47.40;99521.67;232730;215;147672;-60
2023/09/08 14:49:39;;;;;;;13.70;6.60;;;;;;;25.80;48.12;99525.16;232667;215;138853;-59
2023/09/08 14:54:45;;;;;;;252.20;224.40;;;;;;;25.62;48.75;99525.89;232676;214;138389;-61
2023/09/08 14:59:54;;;;;;;31.10;24.50;;;;;;;25.55;49.54;99517.81;232628;215;149189;-58
2023/09/08 15:04:59;;;;;;;11.30;7.30;;;;;;;25.46;49.72;99516.07;232662;215;138782;-57
2023/09/08 15:10:06;;;;;;;8.60;5.70;;;;;;;25.36;50.09;99515.34;232857;215;137852;-58
2023/09/08 15:15:10;;;;;;;11.70;6.20;;;;;;;25.27;50.44;99514.36;232791;207;147763;-62
2023/09/08 15:20:15;;;;;;;10.90;5.30;;;;;;;25.19;50.56;99510.73;232755;215;138792;-61
2023/09/08 15:25:20;;;;;;;10.80;5.10;;;;;;;25.15;50.66;99508.94;232728;215;137548;-60
2023/09/08 15:30:25;;;;;;;10.10;5.30;;;;;;;25.12;50.89;99508.36;232701;215;148910;-60
2023/09/08 15:35:28;;;;;;;7.10;5.80;;;;;;;25.09;51.22;99509.55;232674;215;139037;-62
2023/09/08 15:40:32;;;;;;;7.70;5.90;;;;;;;25.03;51.55;99505.09;232827;214;137627;-60
2023/09/08 15:45:37;;;;;;;11.00;6.00;;;;;;;24.96;51.32;99501.84;232652;214;148039;-60
2023/09/08 15:50:42;;;;;;;;;;;;;;;24.91;51.63;99499.45;232720;215;138862;-61
2023/09/08 15:55:48;;;;;;;16.50;5.40;;;;;;;24.85;51.88;99500.98;232846;214;133281;-59
2023/09/08 16:00:52;;;;;;;12.00;5.50;;;;;;;24.77;52.13;99495.30;232728;215;147427;-61
2023/09/08 16:05:58;;;;;;;17.30;5.10;;;;;;;24.69;52.55;99493.48;232701;215;138694;-60
2023/09/08 16:11:03;;;;;;;20.50;17.20;;;;;;;24.62;52.89;99488.59;232729;214;139178;-57
2023/09/08 16:16:10;;;;;;;50.30;37.60;;;;;;;24.55;53.63;99487.69;232819;215;148563;-57
2023/09/08 16:21:14;;;;;;;134.80;113.40;;;;;;;24.50;54.18;99484.66;232680;215;140978;-57
2023/09/08 16:26:20;;;;;;;65.20;53.50;;;;;;;24.45;54.46;99474.91;232742;215;141765;-57
2023/09/08 16:31:25;;;;;;;29.80;20.20;;;;;;;24.38;54.69;99476.50;232727;214;147626;-58
2023/09/08 16:36:28;;;;;;;20.80;12.00;;;;;;;24.31;54.99;99470.46;232651;214;141551;-57
2023/09/08 16:41:33;;;;;;;14.50;6.80;;;;;;;24.24;55.22;99473.61;232742;214;137408;-57
2023/09/08 16:46:38;;;;;;;11.20;6.10;;;;;;;24.12;55.50;99475.06;232828;213;148061;-57
2023/09/08 16:52:22;;;;;;;11.90;6.30;;;;;;;23.99;55.54;99480.17;231455;224;724283;-57
2023/09/08 16:57:28;;;;;;;282.00;245.10;;;;;;;23.84;56.09;99480.56;232155;221;139523;-57
2023/09/08 17:02:31;;;;;;;21.60;15.70;;;;;;;23.72;56.05;99482.48;232322;219;145586;-57
2023/09/08 17:07:37;;;;;;;14.10;7.40;;;;;;;23.59;56.41;99485.33;232286;219;139837;-58
2023/09/08 17:12:41;;;;;;;12.10;7.80;;;;;;;23.45;56.88;99482.31;232364;218;136683;-57
2023/09/08 17:17:49;;;;;;;11.70;7.20;;;;;;;23.31;57.42;99484.73;232425;218;143683;-58
2023/09/08 17:22:52;;;;;;;12.40;7.10;;;;;;;23.20;57.56;99488.98;232384;218;138796;-56
2023/09/08 17:27:57;;;;;;;321.40;238.80;;;;;;;23.08;58.00;99487.89;232582;218;137968;-59
2023/09/08 17:33:03;;;;;;;42.80;27.10;;;;;;;23.00;58.54;99489.29;232672;218;143718;-59
2023/09/08 17:38:07;;;;;;;24.40;19.00;;;;;;;22.94;58.90;99491.56;232780;218;146810;-59
2023/09/08 17:43:11;;;;;;;48.20;38.80;;;;;;;22.85;59.40;99491.89;232477;218;139260;-59
2023/09/08 17:48:15;;;;;;;13.90;9.40;;;;;;;22.77;59.48;99498.03;232560;217;145817;-60
2023/09/08 17:53:19;;;;;;;12.20;7.90;;;;;;;22.62;59.50;99504.33;232631;218;140461;-60
2023/09/08 17:58:22;;;;;;;78.40;65.60;;;;;;;22.47;60.00;99509.68;232769;218;137794;-60
2023/09/08 18:03:29;;;;;;;20.40;10.00;;;;;;;22.36;60.43;99511.49;232562;218;146421;-61
2023/09/08 18:08:35;;;;;;;17.90;9.00;;;;;;;22.24;60.91;99513.14;232542;218;139817;-59
2023/09/08 18:13:39;;;;;;;17.20;8.30;;;;;;;22.12;61.20;99508.64;232648;218;140282;-60
2023/09/08 18:18:45;;;;;;;18.70;9.80;;;;;;;21.98;61.46;99506.73;232635;217;146450;-59
2023/09/08 18:23:51;;;;;;;;;;;;;;;21.87;61.89;99510.61;232564;217;138753;-60
2023/09/08 18:28:56;;;;;;;19.00;9.10;;;;;;;21.76;62.41;99511.70;232794;218;131157;-60
2023/09/08 18:34:02;;;;;;;18.80;9.40;;;;;;;21.62;62.85;99511.33;232443;218;147036;-59
2023/09/08 18:39:08;;;;;;;22.10;9.30;;;;;;;21.51;63.56;99517.67;232552;217;138748;-61
2023/09/08 18:44:13;;;;;;;15.40;8.60;;;;;;;21.44;64.12;99517.66;232692;218;139008;-60
2023/09/08 18:49:21;;;;;;;25.40;9.60;;;;;;;21.42;64.52;99514.45;232606;218;145522;-61
2023/09/08 18:54:29;;;;;;;21.90;9.50;;;;;;;21.40;64.73;99513.02;232551;218;139408;-59
2023/09/08 19:03:23;;;;;;;33.90;17.20;;;;;;;21.43;65.53;99506.38;232136;220;723825;-62
2023/09/08 19:08:30;;;;;;;25.10;11.00;;;;;;;21.31;65.39;99508.96;232478;218;136754;-60
2023/09/08 19:13:35;;;;;;;23.70;10.40;;;;;;;21.16;65.71;99511.73;232386;218;144916;-60
2023/09/08 19:18:41;;;;;;;24.70;9.70;;;;;;;21.00;65.94;99516.32;232847;216;139264;-61
2023/09/08 19:23:49;;;;;;;24.30;10.20;;;;;;;20.87;66.40;99520.77;232920;216;137310;-61
2023/09/08 19:28:55;;;;;;;27.50;12.70;;;;;;;20.74;66.80;99520.84;232960;216;143917;-62
2023/09/08 19:34:02;;;;;;;41.40;16.70;;;;;;;20.61;67.08;99525.59;232675;214;139490;-59
2023/09/08 19:39:08;;;;;;;;;;;;;;;20.51;67.40;99522.16;232795;214;137572;-59
2023/09/08 19:44:12;;;;;;;48.60;21.20;;;;;;;20.44;67.84;99521.80;232792;214;144019;-57
2023/09/08 19:49:17;;;;;;;;;;;;;;;20.40;68.05;99519.81;232776;215;139030;-59
2023/09/08 19:54:22;;;;;;;33.30;16.60;;;;;;;20.32;68.05;99516.45;232787;215;131076;-57
2023/09/08 19:59:27;;;;;;;27.60;15.80;;;;;;;20.23;68.34;99516.70;232878;215;146095;-57
2023/09/08 20:04:32;;;;;;;32.40;18.20;;;;;;;20.15;68.61;99519.36;232868;215;138833;-57
2023/09/08 20:09:38;;;;;;;35.80;22.30;;;;;;;20.05;68.90;99520.90;232770;215;136744;-56
2023/09/08 20:14:43;;;;;;;31.00;20.60;;;;;;;19.95;68.92;99525.09;232812;215;147077;-58
2023/09/08 20:19:48;;;;;;;25.30;15.30;;;;;;;19.85;69.18;99524.81;232728;215;139499;-58
2023/09/08 20:24:57;;;;;;;25.00;15.30;;;;;;;19.75;69.44;99523.70;232758;215;138156;-56
2023/09/08 20:30:07;;;;;;;28.20;14.40;;;;;;;19.70;69.64;99523.48;232666;215;146956;-60
2023/09/08 20:35:11;;;;;;;23.20;12.70;;;;;;;19.67;69.91;99520.71;232908;215;138926;-59
2023/09/08 20:40:17;;;;;;;21.40;13.00;;;;;;;19.61;69.91;99524.80;232754;215;136857;-59
2023/09/08 20:45:22;;;;;;;25.00;12.70;;;;;;;19.55;70.10;99526.95;232784;215;145841;-59
2023/09/08 20:50:26;;;;;;;25.80;12.40;;;;;;;19.50;70.15;99538.02;232684;215;139203;-60
2023/09/08 20:55:32;;;;;;;23.60;12.80;;;;;;;19.41;70.41;99538.13;232783;215;137942;-60
2023/09/08 21:00:38;;;;;;;20.30;11.90;;;;;;;19.29;70.65;99536.34;232867;215;146165;-60
2023/09/08 21:05:44;;;;;;;24.90;12.60;;;;;;;19.22;70.75;99538.44;232693;215;138853;-61
2023/09/08 21:10:49;;;;;;;25.40;12.90;;;;;;;19.19;70.73;99539.98;232856;215;137351;-60
2023/09/08 21:15:54;;;;;;;26.20;13.00;;;;;;;19.16;70.85;99539.52;232744;215;145894;-60
2023/09/08 21:20:58;;;;;;;23.50;14.00;;;;;;;19.12;70.79;99538.05;232712;215;138682;-59
2023/09/08 21:26:05;;;;;;;19.90;12.00;;;;;;;19.05;70.94;99539.02;232725;215;137925;-62
2023/09/08 21:31:10;;;;;;;21.70;13.40;;;;;;;18.96;70.99;99536.41;232707;215;145647;-60
2023/09/08 21:36:15;;;;;;;22.90;12.00;;;;;;;18.87;71.22;99538.67;232676;215;138909;-60
2023/09/08 21:41:20;;;;;;;19.20;11.30;;;;;;;18.79;71.45;99536.34;232885;215;137010;-61
2023/09/08 21:46:25;;;;;;;16.90;12.00;;;;;;;18.74;71.64;99536.46;232699;215;146388;-59
2023/09/08 21:51:31;;;;;;;23.40;13.30;;;;;;;18.72;71.73;99534.84;232780;215;139205;-61
2023/09/08 21:56:36;;;;;;;18.90;12.00;;;;;;;18.71;71.55;99535.95;232696;215;137802;-61
2023/09/08 22:01:43;;;;;;;23.60;13.10;;;;;;;18.67;71.56;99533.02;232769;214;146497;-60
2023/09/08 22:06:48;;;;;;;20.90;13.20;;;;;;;18.60;71.91;99527.73;232664;214;138637;-61
2023/09/08 22:11:54;;;;;;;21.80;13.00;;;;;;;18.52;71.95;99523.71;232771;215;138458;-59
2023/09/08 22:16:59;;;;;;;17.40;12.50;;;;;;;18.46;72.41;99524.50;232876;214;147445;-60
2023/09/08 22:22:07;;;;;;;22.00;12.60;;;;;;;18.37;72.44;99525.03;232702;215;139814;-60
2023/09/08 22:27:12;;;;;;;17.60;12.10;;;;;;;18.31;72.44;99525.39;232774;215;138807;-59
2023/09/08 22:32:16;;;;;;;18.90;11.90;;;;;;;18.27;72.69;99521.98;232809;214;145463;-58
2023/09/08 22:37:23;;;;;;;21.10;12.10;;;;;;;18.26;72.62;99521.33;232738;212;138769;-62
2023/09/08 22:42:29;;;;;;;16.70;12.20;;;;;;;18.21;72.72;99522.13;232814;215;137995;-62
2023/09/08 22:47:34;;;;;;;20.60;12.80;;;;;;;18.15;72.88;99518.27;232871;215;146031;-63
2023/09/08 22:52:41;;;;;;;20.50;12.70;;;;;;;18.11;72.94;99515.80;232723;215;138927;-64
2023/09/08 22:57:44;;;;;;;17.60;13.00;;;;;;;18.05;72.99;99517.60;232732;215;138157;-62
2023/09/08 23:02:49;;;;;;;19.10;11.50;;;;;;;17.98;72.99;99518.02;232823;214;146258;-63
2023/09/08 23:07:54;;;;;;;20.20;12.20;;;;;;;17.92;73.22;99512.95;232711;214;139004;-63
2023/09/08 23:13:00;;;;;;;17.00;12.30;;;;;;;17.90;73.32;99510.42;232881;215;138605;-61
2023/09/08 23:18:09;;;;;;;16.70;12.30;;;;;;;17.87;73.29;99509.42;232645;215;147005;-62
2023/09/08 23:23:14;;;;;;;20.30;12.60;;;;;;;17.84;73.29;99511.98;232896;215;139158;-59
2023/09/08 23:28:18;;;;;;;18.70;12.80;;;;;;;17.80;73.37;99508.96;232743;215;138046;-59
2023/09/08 23:33:23;;;;;;;15.20;11.30;;;;;;;17.72;73.41;99500.91;232761;215;145756;-61